createdAt,value
2024-05-09T00:00:42.021Z,2.2172
2024-05-09T00:01:41.882Z,3.1809
2024-05-09T00:02:43.998Z,2.7920
2024-05-09T00:03:46.206Z,2.6830
2024-05-09T00:04:48.360Z,2.8484
2024-05-09T00:05:50.550Z,0.1749
2024-05-09T00:06:52.655Z,3.8396
2024-05-09T00:07:54.757Z,4.3161
2024-05-09T00:08:56.847Z,2.9730
2024-05-09T00:09:58.931Z,3.9052
2024-05-09T00:11:01.073Z,3.4422
2024-05-09T00:12:03.221Z,4.5440
2024-05-09T00:13:05.547Z,4.7687
2024-05-09T00:14:07.695Z,3.8931
2024-05-09T00:15:09.782Z,3.8485
2024-05-09T00:16:11.869Z,4.4890
2024-05-09T00:17:14.055Z,3.2077
2024-05-09T00:18:16.398Z,4.5919
2024-05-09T00:19:18.698Z,4.7083
2024-05-09T00:20:28.052Z,4.9970
2024-05-09T00:21:21.391Z,3.5849
2024-05-09T00:22:23.447Z,5.0164
2024-05-09T00:23:25.608Z,7.8715
2024-05-09T00:24:27.718Z,4.3083
2024-05-09T00:25:29.789Z,5.0748
2024-05-09T00:26:32.014Z,5.6577
2024-05-09T00:27:34.072Z,5.8185
2024-05-09T00:28:36.199Z,7.1706
2024-05-09T00:29:38.291Z,5.7179
2024-05-09T00:30:40.335Z,5.9459
2024-05-09T00:31:42.481Z,6.0097
2024-05-09T00:32:44.682Z,5.8204
2024-05-09T00:33:46.904Z,7.3326
2024-05-09T00:34:49.057Z,6.2207
2024-05-09T00:35:51.096Z,7.5835
2024-05-09T00:36:53.182Z,8.1078
2024-05-09T00:37:55.352Z,4.9553
2024-05-09T00:38:57.402Z,6.1177
2024-05-09T00:39:59.461Z,2.7418
2024-05-09T00:41:01.560Z,6.0676
2024-05-09T00:42:03.629Z,4.1968
2024-05-09T00:43:05.724Z,4.3149
2024-05-09T00:44:07.842Z,5.4242
2024-05-09T00:45:09.884Z,3.7886
2024-05-09T00:46:11.971Z,4.7247
2024-05-09T00:47:14.145Z,4.5506
2024-05-09T00:48:18.863Z,6.9765
2024-05-09T00:49:18.114Z,3.9867
2024-05-09T00:50:29.389Z,6.2761
2024-05-09T00:51:20.974Z,7.4708
2024-05-09T00:52:23.065Z,4.8917
2024-05-09T00:53:25.185Z,6.5860
2024-05-09T00:54:27.197Z,6.7130
2024-05-09T00:55:29.291Z,3.6739
2024-05-09T00:56:31.530Z,7.2255
2024-05-09T00:57:33.616Z,5.7027
2024-05-09T00:58:35.696Z,5.3643
2024-05-09T00:59:37.811Z,5.5989
2024-05-09T01:00:41.256Z,6.5883
2024-05-09T01:01:41.527Z,4.7689
2024-05-09T01:02:43.737Z,6.7447
2024-05-09T01:03:48.717Z,5.7563
2024-05-09T01:04:47.576Z,6.7620
2024-05-09T01:05:49.858Z,5.1152
2024-05-09T01:06:51.961Z,5.4686
2024-05-09T01:07:54.150Z,6.8163
2024-05-09T01:08:56.206Z,6.0616
2024-05-09T01:09:58.289Z,5.2481
2024-05-09T01:11:00.472Z,4.7253
2024-05-09T01:12:02.705Z,4.4209
2024-05-09T01:13:04.906Z,6.3434
2024-05-09T01:14:07.142Z,7.3203
2024-05-09T01:15:09.223Z,4.7202
2024-05-09T01:16:11.291Z,7.2908
2024-05-09T01:17:13.459Z,4.5479
2024-05-09T01:18:15.885Z,6.6326
2024-05-09T01:19:18.149Z,7.3120
2024-05-09T01:20:27.826Z,5.2906
2024-05-09T01:21:20.922Z,6.6355
2024-05-09T01:22:23.029Z,1.4545
2024-05-09T01:23:25.235Z,3.9646
2024-05-09T01:24:27.265Z,4.8356
2024-05-09T01:25:29.340Z,4.7243
2024-05-09T01:26:31.494Z,3.7892
2024-05-09T01:27:33.544Z,4.7212
2024-05-09T01:28:35.678Z,6.7016
2024-05-09T01:29:37.834Z,5.3637
2024-05-09T01:30:39.915Z,5.9444
2024-05-09T01:31:42.030Z,3.7888
2024-05-09T01:32:44.164Z,8.0483
2024-05-09T01:33:46.693Z,6.1525
2024-05-09T01:34:46.506Z,5.0683
2024-05-09T01:35:48.581Z,4.8347
2024-05-09T01:36:50.698Z,5.1905
2024-05-09T01:37:52.774Z,6.5294
2024-05-09T01:38:54.868Z,8.2775
2024-05-09T01:39:56.962Z,6.0051
2024-05-09T01:40:59.067Z,5.7733
2024-05-09T01:42:01.107Z,5.6568
2024-05-09T01:43:03.216Z,6.4732
2024-05-09T01:44:05.312Z,6.2974
2024-05-09T01:45:07.371Z,4.3728
2024-05-09T01:46:09.444Z,6.7062
2024-05-09T01:47:11.735Z,7.4067
2024-05-09T01:48:11.891Z,5.2438
2024-05-09T01:49:14.365Z,7.1877
2024-05-09T01:51:15.853Z,7.1624
2024-05-09T01:52:17.909Z,6.8211
2024-05-09T01:53:20.103Z,3.9604
2024-05-09T01:54:22.162Z,5.8896
2024-05-09T01:55:24.357Z,4.5995
2024-05-09T01:56:26.446Z,5.6567
2024-05-09T01:57:28.635Z,9.6567
2024-05-09T01:58:30.731Z,9.7394
2024-05-09T01:59:32.897Z,7.7563
2024-05-09T02:00:40.022Z,6.2252
2024-05-09T02:01:55.592Z,6.5753
2024-05-09T02:02:36.224Z,7.8887
2024-05-09T02:03:38.531Z,6.6973
2024-05-09T02:04:40.791Z,5.7467
2024-05-09T02:05:42.978Z,5.1434
2024-05-09T02:06:42.916Z,5.2232
2024-05-09T02:07:46.415Z,4.3918
2024-05-09T02:08:49.613Z,3.9513
2024-05-09T02:09:53.058Z,2.6264
2024-05-09T02:10:56.366Z,6.0682
2024-05-09T02:11:59.715Z,4.9711
2024-05-09T02:13:02.950Z,5.2624
2024-05-09T02:14:06.311Z,3.7704
2024-05-09T02:15:09.508Z,4.8675
2024-05-09T02:16:12.728Z,3.3201
2024-05-09T02:17:16.128Z,3.3228
2024-05-09T02:18:17.029Z,2.0992
2024-05-09T02:19:16.899Z,1.5544
2024-05-09T02:20:30.048Z,1.2592
2024-05-09T02:21:22.265Z,4.0780
2024-05-09T02:22:25.465Z,3.9518
2024-05-09T02:23:28.688Z,3.4933
2024-05-09T02:24:31.924Z,2.7483
2024-05-09T02:25:35.128Z,3.1498
2024-05-09T02:26:38.368Z,3.2648
2024-05-09T02:27:41.606Z,2.4025
2024-05-09T02:28:44.827Z,1.8331
2024-05-09T02:29:48.080Z,0.0000
2024-05-09T02:30:51.272Z,2.5192
2024-05-09T02:31:54.574Z,2.7477
2024-05-09T02:32:57.884Z,0.1144
2024-05-09T02:34:01.499Z,2.5093
2024-05-09T02:35:01.572Z,3.0051
2024-05-09T02:36:04.946Z,0.5709
2024-05-09T02:37:08.177Z,0.3433
2024-05-09T02:38:11.491Z,0.6871
2024-05-09T02:39:11.436Z,0.9050
2024-05-09T02:40:18.119Z,0.6873
2024-05-09T02:41:16.794Z,2.0987
2024-05-09T02:42:18.115Z,2.8316
2024-05-09T02:43:21.279Z,0.9735
2024-05-09T02:44:24.591Z,1.7755
2024-05-09T02:45:27.833Z,0.1143
2024-05-09T02:46:27.905Z,1.0249
2024-05-09T02:47:31.183Z,0.0573
2024-05-09T02:48:34.561Z,1.6007
2024-05-09T02:49:37.818Z,0.9149
2024-05-09T02:50:41.297Z,0.5146
2024-05-09T02:51:41.176Z,0.8433
2024-05-09T02:52:44.381Z,1.6610
2024-05-09T02:53:47.646Z,2.9783
2024-05-09T02:54:50.943Z,3.0846
2024-05-09T02:55:54.158Z,3.0358
2024-05-09T02:56:57.342Z,3.2084
2024-05-09T02:58:00.587Z,2.9186
2024-05-09T02:59:03.875Z,1.8324
2024-05-09T03:00:12.101Z,1.4313
2024-05-09T03:01:09.175Z,2.0981
2024-05-09T03:02:12.498Z,0.1718
2024-05-09T03:03:16.080Z,0.1715
2024-05-09T03:04:16.151Z,0.0600
2024-05-09T03:05:19.541Z,0.0572
2024-05-09T03:06:22.725Z,4.5713
2024-05-09T03:07:26.220Z,3.8373
2024-05-09T03:08:26.164Z,4.2107
2024-05-09T03:09:29.337Z,1.8328
2024-05-09T03:10:35.852Z,0.3436
2024-05-09T03:11:34.815Z,2.7375
2024-05-09T03:12:37.859Z,4.2081
2024-05-09T03:13:35.152Z,5.6485
2024-05-09T03:14:38.352Z,2.0625
2024-05-09T03:15:41.618Z,4.9259
2024-05-09T03:16:44.823Z,2.5765
2024-05-09T03:17:48.162Z,2.0048
2024-05-09T03:18:48.041Z,3.1970
2024-05-09T03:19:51.300Z,5.3249
2024-05-09T03:20:54.590Z,0.5722
2024-05-09T03:21:57.825Z,4.6909
2024-05-09T03:23:01.053Z,5.2101
2024-05-09T03:24:04.299Z,3.0315
2024-05-09T03:25:05.563Z,2.0682
2024-05-09T03:26:08.856Z,2.8640
2024-05-09T03:27:12.020Z,0.6867
2024-05-09T03:28:15.312Z,2.8061
2024-05-09T03:29:15.344Z,3.0743
2024-05-09T03:30:29.552Z,4.4606
2024-05-09T03:31:20.731Z,1.6900
2024-05-09T03:32:24.121Z,7.3875
2024-05-09T03:33:27.518Z,4.9681
2024-05-09T03:34:30.948Z,1.9972
2024-05-09T03:35:34.207Z,4.0548
2024-05-09T03:36:37.394Z,3.7787
2024-05-09T03:37:40.599Z,5.8994
2024-05-09T03:38:43.876Z,4.4667
2024-05-09T03:39:47.046Z,4.6384
2024-05-09T03:40:50.890Z,6.4701
2024-05-09T03:41:51.020Z,6.7336
2024-05-09T03:42:54.230Z,7.2175
2024-05-09T03:43:58.354Z,6.6435
2024-05-09T03:44:58.052Z,9.3168
2024-05-09T03:46:01.284Z,5.4971
2024-05-09T03:47:04.537Z,5.6132
2024-05-09T03:48:08.096Z,3.3154
2024-05-09T03:49:08.088Z,2.4655
2024-05-09T03:50:18.316Z,4.0043
2024-05-09T03:51:13.549Z,3.1466
2024-05-09T03:52:16.790Z,4.5127
2024-05-09T03:53:20.144Z,4.2368
2024-05-09T03:54:23.317Z,3.4326
2024-05-09T03:55:26.544Z,4.5801
2024-05-09T03:56:29.776Z,1.2029
2024-05-09T03:57:32.996Z,3.7771
2024-05-09T03:58:36.231Z,4.4090
2024-05-09T03:59:39.588Z,3.3211
2024-05-09T04:00:42.845Z,2.6305
2024-05-09T04:01:46.196Z,2.8600
2024-05-09T04:02:49.513Z,2.4554
2024-05-09T04:03:52.845Z,3.8291
2024-05-09T04:04:56.116Z,4.6918
2024-05-09T04:05:59.375Z,5.7788
2024-05-09T04:07:02.563Z,6.1837
2024-05-09T04:08:05.799Z,3.7792
2024-05-09T04:09:05.850Z,4.8877
2024-05-09T04:10:13.885Z,4.1797
2024-05-09T04:11:11.232Z,5.9398
2024-05-09T04:12:14.635Z,5.9990
2024-05-09T04:13:17.843Z,4.6890
2024-05-09T04:14:21.118Z,5.7274
2024-05-09T04:15:24.355Z,5.6634
2024-05-09T04:16:24.416Z,4.6436
2024-05-09T04:17:27.740Z,5.1528
2024-05-09T04:18:31.091Z,5.3082
2024-05-09T04:19:34.535Z,4.3374
2024-05-09T04:20:40.364Z,5.4920
2024-05-09T04:21:40.951Z,4.9821
2024-05-09T04:22:44.267Z,6.5267
2024-05-09T04:23:47.547Z,3.7173
2024-05-09T04:24:50.786Z,6.6922
2024-05-09T04:25:54.839Z,5.4383
2024-05-09T04:26:54.558Z,5.1433
2024-05-09T04:27:57.830Z,7.5005
2024-05-09T04:29:01.086Z,6.4667
2024-05-09T04:30:06.098Z,6.2911
2024-05-09T04:31:07.459Z,5.6224
2024-05-09T04:32:10.817Z,6.7535
2024-05-09T04:33:14.943Z,6.2261
2024-05-09T04:34:15.216Z,7.4748
2024-05-09T04:35:18.501Z,7.0860
2024-05-09T04:36:21.711Z,7.2689
2024-05-09T04:37:24.976Z,7.8394
2024-05-09T04:38:28.221Z,5.5518
2024-05-09T04:39:31.438Z,7.6733
2024-05-09T04:40:36.698Z,6.1843
2024-05-09T04:41:37.281Z,4.4534
2024-05-09T04:42:40.485Z,6.8703
2024-05-09T04:43:43.712Z,6.1259
2024-05-09T04:44:46.953Z,3.3781
2024-05-09T04:45:50.180Z,4.9235
2024-05-09T04:46:53.512Z,10.1920
2024-05-09T04:47:56.966Z,8.2319
2024-05-09T04:48:56.915Z,5.6055
2024-05-09T04:50:00.203Z,5.1438
2024-05-09T04:51:03.709Z,6.7507
2024-05-09T04:52:03.498Z,6.8104
2024-05-09T04:53:07.613Z,7.4983
2024-05-09T04:54:10.738Z,5.1751
2024-05-09T04:55:09.178Z,6.0643
2024-05-09T04:56:12.495Z,5.3245
2024-05-09T04:57:15.708Z,5.4923
2024-05-09T04:58:18.906Z,5.4401
2024-05-09T04:59:22.296Z,2.9179
2024-05-09T05:00:32.044Z,1.8873
2024-05-09T05:01:27.677Z,1.2820
2024-05-09T05:02:30.951Z,6.0089
2024-05-09T05:03:34.292Z,5.3193
2024-05-09T05:04:37.635Z,3.9386
2024-05-09T05:05:41.361Z,5.3172
2024-05-09T05:06:41.326Z,4.6738
2024-05-09T05:07:44.592Z,4.2366
2024-05-09T05:08:47.823Z,4.9779
2024-05-09T05:09:51.039Z,5.7842
2024-05-09T05:10:54.437Z,7.1567
2024-05-09T05:11:57.831Z,3.1940
2024-05-09T05:13:01.083Z,6.0035
2024-05-09T05:14:04.394Z,4.9792
2024-05-09T05:15:07.580Z,5.4354
2024-05-09T05:16:10.802Z,3.6080
2024-05-09T05:17:14.091Z,3.0919
2024-05-09T05:18:17.463Z,4.1768
2024-05-09T05:19:17.839Z,3.4974
2024-05-09T05:20:27.038Z,1.3203
2024-05-09T05:21:19.861Z,4.9536
2024-05-09T05:22:23.094Z,2.2299
2024-05-09T05:23:26.409Z,1.6031
2024-05-09T05:24:29.642Z,0.7436
2024-05-09T05:25:32.865Z,0.9730
2024-05-09T05:26:36.167Z,2.8634
2024-05-09T05:27:39.417Z,0.1143
2024-05-09T05:28:42.652Z,0.5154
2024-05-09T05:29:45.915Z,1.3740
2024-05-09T05:30:49.126Z,1.4313
2024-05-09T05:31:52.443Z,0.1716
2024-05-09T05:32:55.889Z,2.9746
2024-05-09T05:33:55.923Z,2.5322
2024-05-09T05:34:59.213Z,3.2522
2024-05-09T05:36:02.450Z,0.7440
2024-05-09T05:37:05.648Z,0.1145
2024-05-09T05:38:09.004Z,2.8629
2024-05-09T05:39:09.161Z,4.3849
2024-05-09T05:40:20.629Z,0.8016
2024-05-09T05:41:14.608Z,2.7370
2024-05-09T05:42:17.850Z,2.2305
2024-05-09T05:43:21.067Z,6.0698
2024-05-09T05:44:24.364Z,4.5199
2024-05-09T05:45:27.609Z,4.4058
2024-05-09T05:46:30.841Z,4.2932
2024-05-09T05:47:34.323Z,2.2329
2024-05-09T05:48:34.331Z,0.6030
2024-05-09T05:49:34.290Z,2.1711
2024-05-09T05:50:38.591Z,2.1708
2024-05-09T05:51:38.616Z,3.8512
2024-05-09T05:52:41.841Z,6.0689
2024-05-09T05:53:45.137Z,4.7530
2024-05-09T05:54:48.348Z,1.0875
2024-05-09T05:55:51.628Z,4.1201
2024-05-09T05:56:54.895Z,4.5165
2024-05-09T05:57:58.129Z,4.4660
2024-05-09T05:59:01.425Z,4.6935
2024-05-09T06:00:09.233Z,5.3797
2024-05-09T06:01:06.814Z,1.5140
2024-05-09T06:02:10.236Z,4.4609
2024-05-09T06:03:14.290Z,1.3118
2024-05-09T06:04:14.322Z,5.3077
2024-05-09T06:05:17.605Z,2.4607
2024-05-09T06:06:21.024Z,5.0828
2024-05-09T06:07:24.198Z,5.6631
2024-05-09T06:08:30.256Z,1.7147
2024-05-09T06:09:30.374Z,2.2473
2024-05-09T06:10:38.742Z,0.7444
2024-05-09T06:11:35.803Z,2.1551
2024-05-09T06:12:39.124Z,1.3716
2024-05-09T06:13:42.338Z,2.5759
2024-05-09T06:14:45.573Z,4.1793
2024-05-09T06:15:48.976Z,4.4657
2024-05-09T06:16:54.057Z,3.8828
2024-05-09T06:17:54.595Z,6.4087
2024-05-09T06:18:54.602Z,3.6157
2024-05-09T06:19:54.884Z,1.6198
2024-05-09T06:20:55.091Z,2.5269
2024-05-09T06:21:58.308Z,3.4281
2024-05-09T06:23:01.671Z,0.1717
2024-05-09T06:24:06.778Z,1.9996
2024-05-09T06:25:06.536Z,4.2323
2024-05-09T06:26:09.845Z,4.7490
2024-05-09T06:27:13.038Z,3.6046
2024-05-09T06:28:16.363Z,3.8304
2024-05-09T06:29:19.601Z,3.6080
2024-05-09T06:30:30.115Z,2.6333
2024-05-09T06:31:25.005Z,3.6125
2024-05-09T06:32:28.348Z,4.1199
2024-05-09T06:33:31.764Z,4.6818
2024-05-09T06:34:35.082Z,1.3132
2024-05-09T06:35:38.521Z,5.0906
2024-05-09T06:36:38.331Z,3.1977
2024-05-09T06:37:41.615Z,1.0873
2024-05-09T06:38:44.931Z,0.0000
2024-05-09T06:39:48.145Z,4.1169
2024-05-09T06:40:51.427Z,3.6640
2024-05-09T06:41:51.388Z,3.6811
2024-05-09T06:42:54.621Z,4.3498
2024-05-09T06:43:57.962Z,4.2932
2024-05-09T06:45:01.152Z,1.5444
2024-05-09T06:46:04.376Z,2.6913
2024-05-09T06:47:07.785Z,4.1793
2024-05-09T06:48:11.267Z,7.4778
2024-05-09T06:49:11.412Z,2.2233
2024-05-09T06:50:20.153Z,2.1048
2024-05-09T06:51:13.742Z,3.7269
2024-05-09T06:52:16.962Z,4.8038
2024-05-09T06:53:20.380Z,1.8861
2024-05-09T06:54:23.711Z,6.6214
2024-05-09T06:55:26.939Z,6.2979
2024-05-09T06:56:30.358Z,6.5741
2024-05-09T06:57:33.561Z,2.5746
2024-05-09T06:58:36.908Z,2.8003
2024-05-09T06:59:40.268Z,3.8869
2024-05-09T07:00:43.633Z,0.8012
2024-05-09T07:01:46.920Z,0.0571
2024-05-09T07:02:50.349Z,1.7161
2024-05-09T07:03:53.663Z,2.9704
2024-05-09T07:04:57.018Z,2.1148
2024-05-09T07:05:56.938Z,1.4480
2024-05-09T07:07:00.212Z,5.3736
2024-05-09T07:08:03.526Z,1.3742
2024-05-09T07:09:06.768Z,2.5163
2024-05-09T07:10:14.990Z,4.3508
2024-05-09T07:11:12.229Z,7.4535
2024-05-09T07:12:15.539Z,4.9785
2024-05-09T07:13:18.890Z,3.4228
2024-05-09T07:14:22.194Z,4.1792
2024-05-09T07:15:25.395Z,3.9463
2024-05-09T07:16:28.622Z,4.7533
2024-05-09T07:17:32.088Z,4.8657
2024-05-09T07:18:35.508Z,5.0202
2024-05-09T07:19:35.515Z,6.1425
2024-05-09T07:20:38.807Z,7.7172
2024-05-09T07:21:42.059Z,6.8074
2024-05-09T07:22:45.410Z,9.2769
2024-05-09T07:23:48.723Z,11.6005
2024-05-09T07:24:52.031Z,7.9913
2024-05-09T07:25:55.321Z,7.3288
2024-05-09T07:26:58.540Z,6.4645
2024-05-09T07:28:01.899Z,2.6283
2024-05-09T07:29:05.161Z,4.6381
2024-05-09T07:30:09.424Z,5.2096
2024-05-09T07:31:11.277Z,8.6889
2024-05-09T07:32:14.730Z,9.1596
2024-05-09T07:33:14.757Z,7.2997
2024-05-09T07:34:14.830Z,4.7628
2024-05-09T07:35:14.664Z,1.3275
2024-05-09T07:36:17.851Z,5.2626
2024-05-09T07:37:21.075Z,2.5766
2024-05-09T07:38:24.490Z,0.7434
2024-05-09T07:39:27.731Z,1.4292
2024-05-09T07:40:35.966Z,6.1723
2024-05-09T07:41:33.385Z,5.4676
2024-05-09T07:42:36.569Z,6.6367
2024-05-09T07:43:39.804Z,8.5886
2024-05-09T07:44:43.165Z,10.2381
2024-05-09T07:47:48.609Z,3.4349
2024-05-09T07:49:13.573Z,9.3042
2024-05-09T07:52:45.973Z,9.1945
2024-05-09T07:53:22.088Z,5.7092
2024-05-09T07:53:36.082Z,7.7495
2024-05-09T07:54:04.412Z,7.1015
2024-05-09T07:55:04.708Z,4.8363
2024-05-09T07:56:09.359Z,2.4527
2024-05-09T07:57:09.798Z,2.0518
2024-05-09T07:58:13.151Z,8.1688
2024-05-09T07:59:16.433Z,5.7188
2024-05-09T08:00:23.734Z,2.5725
2024-05-09T08:01:22.062Z,1.5730
2024-05-09T08:02:22.256Z,1.4449
2024-05-09T08:03:22.368Z,4.4482
2024-05-09T08:04:26.778Z,9.5490
2024-05-09T08:05:26.753Z,7.1770
2024-05-09T08:06:30.087Z,8.9591
2024-05-09T08:07:33.426Z,8.6873
2024-05-09T08:08:36.621Z,7.4418
2024-05-09T08:09:39.976Z,6.0682
2024-05-09T08:10:43.502Z,5.1924
2024-05-09T08:11:43.386Z,6.9380
2024-05-09T08:12:46.592Z,6.3521
2024-05-09T08:13:49.857Z,11.1640
2024-05-09T08:14:53.270Z,7.4745
2024-05-09T08:15:56.579Z,6.5245
2024-05-09T08:16:59.810Z,6.3495
2024-05-09T08:18:03.237Z,3.9482
2024-05-09T08:19:06.682Z,3.8773
2024-05-09T08:20:11.355Z,6.0578
2024-05-09T08:21:13.120Z,5.5800
2024-05-09T08:22:12.891Z,3.1366
2024-05-09T08:23:16.095Z,6.1822
2024-05-09T08:24:19.333Z,3.0910
2024-05-09T08:25:22.618Z,2.1188
2024-05-09T08:26:25.836Z,4.6939
2024-05-09T08:27:29.136Z,1.2586
2024-05-09T08:28:32.394Z,1.7734
2024-05-09T08:29:35.604Z,2.5761
2024-05-09T08:30:38.951Z,2.4618
2024-05-09T08:31:42.276Z,6.3361
2024-05-09T08:32:45.736Z,6.4532
2024-05-09T08:33:49.092Z,2.2293
2024-05-09T08:34:52.536Z,4.7405
2024-05-09T08:35:55.806Z,2.9690
2024-05-09T08:37:03.913Z,5.3203
2024-05-09T08:38:01.342Z,4.5417
2024-05-09T08:39:04.643Z,6.3963
2024-05-09T08:40:11.133Z,7.0331
2024-05-09T08:41:10.156Z,2.7344
2024-05-09T08:42:13.396Z,5.9555
2024-05-09T08:43:16.831Z,4.5215
2024-05-09T08:44:16.612Z,1.4482
2024-05-09T08:45:16.738Z,2.7111
2024-05-09T08:46:20.129Z,4.7494
2024-05-09T08:47:20.007Z,2.5948
2024-05-09T08:48:23.510Z,4.5741
2024-05-09T08:49:23.651Z,4.8093
2024-05-09T08:50:35.457Z,3.8824
2024-05-09T08:51:29.178Z,3.4325
2024-05-09T08:52:32.434Z,5.7218
2024-05-09T08:53:35.646Z,2.4042
2024-05-09T08:54:38.909Z,5.3233
2024-05-09T08:55:43.769Z,5.6123
2024-05-09T08:56:44.043Z,7.7748
2024-05-09T08:57:47.364Z,0.8014
2024-05-09T08:58:50.542Z,1.3162
2024-05-09T08:59:53.766Z,2.6337
2024-05-09T09:00:57.123Z,4.0049
2024-05-09T09:02:00.489Z,4.5138
2024-05-09T09:03:03.819Z,5.7756
2024-05-09T09:04:07.338Z,7.2000
2024-05-09T09:05:07.241Z,5.5481
2024-05-09T09:06:10.486Z,3.9985
2024-05-09T09:07:13.847Z,4.0069
2024-05-09T09:08:17.080Z,4.9147
2024-05-09T09:09:20.368Z,5.2662
2024-05-09T09:10:29.804Z,7.2090
2024-05-09T09:11:25.723Z,8.9743
2024-05-09T09:12:28.978Z,7.1576
2024-05-09T09:13:32.217Z,9.1597
2024-05-09T09:14:35.528Z,9.1495
2024-05-09T09:15:38.740Z,8.1281
2024-05-09T09:16:41.936Z,8.8769
2024-05-09T09:17:45.198Z,10.6499
2024-05-09T09:18:48.524Z,7.5582
2024-05-09T09:19:48.469Z,3.9190
2024-05-09T09:20:51.762Z,0.4004
2024-05-09T09:21:55.018Z,5.6075
2024-05-09T09:22:58.252Z,11.0512
2024-05-09T09:24:01.612Z,8.7417
2024-05-09T09:25:04.993Z,4.8643
2024-05-09T09:26:08.303Z,6.9058
2024-05-09T09:27:11.546Z,7.5573
2024-05-09T09:28:14.956Z,3.8301
2024-05-09T09:29:18.185Z,7.0878
2024-05-09T09:30:34.005Z,5.3809
2024-05-09T09:31:23.598Z,3.2045
2024-05-09T09:32:23.598Z,6.6362
2024-05-09T09:33:40.946Z,5.5118
2024-05-09T09:34:43.301Z,3.7684
2024-05-09T09:35:45.431Z,1.7473
2024-05-09T09:36:45.584Z,1.0231
2024-05-09T09:37:47.764Z,3.1452
2024-05-09T09:38:49.835Z,2.7977
2024-05-09T09:39:51.985Z,0.1748
2024-05-09T09:40:54.204Z,2.7978
2024-05-09T09:41:56.308Z,4.2464
2024-05-09T09:42:58.506Z,7.0499
2024-05-09T09:44:00.620Z,4.6005
2024-05-09T09:45:05.460Z,6.4127
2024-05-09T09:46:03.149Z,5.7006
2024-05-09T09:47:05.290Z,4.3660
2024-05-09T09:48:07.522Z,8.1571
2024-05-09T09:49:09.645Z,10.7588
2024-05-09T09:50:14.634Z,4.4866
2024-05-09T09:51:12.368Z,5.9129
2024-05-09T09:52:14.659Z,1.9797
2024-05-09T09:53:16.809Z,6.1080
2024-05-09T09:54:18.921Z,5.7665
2024-05-09T09:55:21.096Z,6.7611
2024-05-09T09:56:23.226Z,7.9187
2024-05-09T09:57:25.349Z,6.5253
2024-05-09T09:58:27.699Z,7.7508
2024-05-09T09:59:29.784Z,8.1904
2024-05-09T10:00:33.528Z,7.2273
2024-05-09T10:01:33.797Z,5.8559
2024-05-09T10:02:35.940Z,10.9421
2024-05-09T10:03:38.341Z,15.0897
2024-05-09T10:04:38.289Z,13.4359
2024-05-09T10:05:42.097Z,14.8709
2024-05-09T10:06:41.361Z,10.9170
2024-05-09T10:07:43.472Z,12.4654
2024-05-09T10:08:45.609Z,7.2830
2024-05-09T10:09:47.768Z,8.0981
2024-05-09T10:10:50.242Z,7.6334
2024-05-09T10:11:52.360Z,7.9210
2024-05-09T10:12:51.833Z,7.0536
2024-05-09T10:13:54.034Z,10.8783
2024-05-09T10:14:56.158Z,9.0310
2024-05-09T10:15:58.415Z,10.0071
2024-05-09T10:17:00.659Z,7.4485
2024-05-09T10:18:03.095Z,12.9104
2024-05-09T10:19:05.363Z,12.7691
2024-05-09T10:20:14.657Z,11.2255
2024-05-09T10:21:08.078Z,8.4212
2024-05-09T10:22:10.344Z,6.3439
2024-05-09T10:23:12.621Z,8.8891
2024-05-09T10:24:14.702Z,8.1578
2024-05-09T10:25:16.874Z,5.3050
2024-05-09T10:26:19.112Z,8.3716
2024-05-09T10:27:21.311Z,10.4691
2024-05-09T10:28:23.546Z,5.7055
2024-05-09T10:29:25.718Z,7.9135
2024-05-09T10:30:34.082Z,5.4206
2024-05-09T10:31:28.561Z,3.1621
2024-05-09T10:32:30.745Z,6.6937
2024-05-09T10:33:33.103Z,8.6679
2024-05-09T10:34:35.414Z,1.8570
2024-05-09T10:35:37.570Z,3.0234
2024-05-09T10:36:39.873Z,4.4242
2024-05-09T10:37:42.025Z,3.0235
2024-05-09T10:38:44.138Z,3.6715
2024-05-09T10:39:46.341Z,4.0204
2024-05-09T10:40:48.447Z,10.1382
2024-05-09T10:41:50.731Z,9.7886
2024-05-09T10:42:52.900Z,8.0237
2024-05-09T10:43:55.024Z,10.3559
2024-05-09T10:44:57.120Z,9.9714
2024-05-09T10:45:59.265Z,8.3907
2024-05-09T10:47:01.401Z,8.4519
2024-05-09T10:48:03.601Z,4.6591
2024-05-09T10:49:07.875Z,5.9918
2024-05-09T10:50:15.737Z,5.2015
2024-05-09T10:51:08.249Z,10.6381
2024-05-09T10:52:10.473Z,10.9555
2024-05-09T10:53:12.582Z,11.6970
2024-05-09T10:54:14.692Z,7.7520
2024-05-09T10:55:17.079Z,12.9017
2024-05-09T10:56:19.183Z,7.1601
2024-05-09T10:57:21.343Z,12.0048
2024-05-09T10:58:23.581Z,8.1446
2024-05-09T10:59:25.689Z,6.7566
2024-05-09T11:00:33.595Z,9.8329
2024-05-09T11:01:28.758Z,8.1142
2024-05-09T11:02:31.122Z,6.8593
2024-05-09T11:03:31.117Z,6.2089
2024-05-09T11:04:33.337Z,6.8527
2024-05-09T11:05:35.528Z,10.4161
2024-05-09T11:06:37.690Z,8.6747
2024-05-09T11:07:40.025Z,10.8546
2024-05-09T11:08:42.216Z,14.1016
2024-05-09T11:09:44.451Z,11.9797
2024-05-09T11:10:46.702Z,7.6211
2024-05-09T11:11:48.879Z,5.1228
2024-05-09T11:12:51.180Z,0.5229
2024-05-09T11:13:53.263Z,4.8954
2024-05-09T11:14:55.492Z,16.0595
2024-05-09T11:15:57.603Z,12.3524
2024-05-09T11:16:58.245Z,17.1875
2024-05-09T11:18:00.583Z,18.1563
2024-05-09T11:19:02.900Z,14.7649
2024-05-09T11:20:13.298Z,15.2763
2024-05-09T11:21:05.697Z,12.7160
2024-05-09T11:22:07.925Z,12.1151
2024-05-09T11:23:10.118Z,9.7226
2024-05-09T11:24:12.194Z,5.9983
2024-05-09T11:25:14.418Z,6.7019
2024-05-09T11:26:16.541Z,9.3670
2024-05-09T11:27:18.655Z,8.6249
2024-05-09T11:28:20.903Z,12.8795
2024-05-09T11:29:23.018Z,10.6430
2024-05-09T11:30:30.115Z,7.6936
2024-05-09T11:31:25.972Z,11.1063
2024-05-09T11:32:28.327Z,11.4923
2024-05-09T11:33:30.634Z,12.1283
2024-05-09T11:34:32.901Z,10.4712
2024-05-09T11:35:35.058Z,15.1655
2024-05-09T11:36:37.207Z,12.9957
2024-05-09T11:37:39.346Z,10.7189
2024-05-09T11:38:41.473Z,13.5180
2024-05-09T11:39:43.612Z,11.4202
2024-05-09T11:40:45.728Z,6.6446
2024-05-09T11:41:47.861Z,10.5980
2024-05-09T11:42:52.498Z,9.0316
2024-05-09T11:43:50.180Z,4.8737
2024-05-09T11:44:52.287Z,10.3701
2024-05-09T11:45:54.431Z,5.3040
2024-05-09T11:46:56.508Z,5.1880
2024-05-09T11:47:58.846Z,3.9035
2024-05-09T11:49:01.110Z,7.6655
2024-05-09T11:50:04.365Z,9.6565
2024-05-09T11:51:04.765Z,10.0002
2024-05-09T11:52:06.909Z,6.5859
2024-05-09T11:53:09.049Z,2.9705
2024-05-09T11:54:11.126Z,12.0704
2024-05-09T11:55:13.320Z,4.7783
2024-05-09T11:56:15.432Z,3.2608
2024-05-09T11:57:17.522Z,8.3352
2024-05-09T11:58:19.854Z,10.5728
2024-05-09T11:59:22.118Z,9.4780
2024-05-09T12:00:33.754Z,8.6725
2024-05-09T12:01:27.510Z,11.9326
2024-05-09T12:02:25.079Z,6.3883
2024-05-09T12:03:27.352Z,6.2208
2024-05-09T12:04:29.581Z,7.2284
2024-05-09T12:05:32.035Z,11.6564
2024-05-09T12:06:31.899Z,8.3218
2024-05-09T12:07:34.037Z,7.9240
2024-05-09T12:08:36.152Z,4.9518
2024-05-09T12:09:38.401Z,8.7911
2024-05-09T12:10:40.769Z,6.1153
2024-05-09T12:11:40.525Z,0.1810
2024-05-09T12:12:42.642Z,4.6034
2024-05-09T12:13:44.791Z,6.3482
2024-05-09T12:14:46.901Z,5.5947
2024-05-09T12:15:49.044Z,7.5189
2024-05-09T12:16:51.275Z,7.6824
2024-05-09T12:17:53.573Z,8.7906
2024-05-09T12:18:55.984Z,1.8550
2024-05-09T12:19:58.182Z,5.2872
2024-05-09T12:21:00.305Z,6.7581
2024-05-09T12:22:02.466Z,4.7198
2024-05-09T12:23:04.613Z,3.6091
2024-05-09T12:24:06.687Z,6.5300
2024-05-09T12:25:08.898Z,2.9138
2024-05-09T12:26:11.075Z,5.0027
2024-05-09T12:27:11.140Z,7.4709
2024-05-09T12:28:13.314Z,10.3751
2024-05-09T12:29:15.451Z,7.6256
2024-05-09T12:30:29.034Z,6.2941
2024-05-09T12:31:18.214Z,4.6567
2024-05-09T12:32:20.432Z,7.8627
2024-05-09T12:33:22.674Z,13.8511
2024-05-09T12:34:24.782Z,11.8701
2024-05-09T12:35:26.895Z,10.5496
2024-05-09T12:36:27.557Z,4.8317
2024-05-09T12:37:29.719Z,6.1759
2024-05-09T12:38:31.838Z,1.4566
2024-05-09T12:39:33.988Z,2.9143
2024-05-09T12:40:38.319Z,6.6436
2024-05-09T12:41:36.525Z,6.9452
2024-05-09T12:42:38.785Z,7.5677
2024-05-09T12:43:40.975Z,6.1692
2024-05-09T12:44:43.080Z,7.7457
2024-05-09T12:45:45.337Z,3.0850
2024-05-09T12:46:47.442Z,6.2897
2024-05-09T12:47:49.780Z,10.3719
2024-05-09T12:48:49.861Z,8.3856
2024-05-09T12:49:49.713Z,13.0257
2024-05-09T12:50:50.493Z,7.8561
2024-05-09T12:51:52.649Z,9.9643
2024-05-09T12:52:54.742Z,8.9071
2024-05-09T12:53:56.846Z,8.4536
2024-05-09T12:54:58.996Z,4.5441
2024-05-09T12:56:02.280Z,4.0852
2024-05-09T12:57:00.809Z,5.7043
2024-05-09T12:58:02.981Z,4.9522
2024-05-09T12:59:05.100Z,2.5046
2024-05-09T13:00:09.381Z,2.2145
2024-05-09T13:01:08.782Z,5.5346